Terminal Aerodrome Forecast
Issued by NWS

Home | Current Version | Previous Version | Text Only | Print | Product List | Glossary On
Versions: 1 2 3 4 5 6 7 8 9 10 11 12 13 14 15 16 17 18 19 20 21
317
FTAK31 PAJN 220204 AAA
TAFAPG
TAF AMD
PAPG 220204Z 2202/2224 VRB03KT P6SM BKN010 OVC020
      TEMPO 2202/2206 3SM BR BKN005
     FM220600 VRB02KT P6SM SCT020 OVC080
     FM221200 VRB04KT 1SM -SN BR OVC015
     FM221700 VRB03KT 2SM -SNRA BR OVC015
     FM222000 VRB05KT 5SM -RA BR OVC025
      AMD LTD TO CLD VIS AND WIND 2206/2215=

USA.gov is the U.S. government's official web portal to all federal, state and local government web resources and services.